sensor_id;sensor_type;location;lat;lon;timestamp;pressure;altitude;pressure_sealevel;temperature;humidity
55171;BME280;41060;47.510;8.680;2023-02-14T00:02:22;98960.88;;;5.46;54.83
55171;BME280;41060;47.510;8.680;2023-02-14T00:04:48;98853.22;;;4.86;54.60
55171;BME280;41060;47.510;8.680;2023-02-14T00:07:15;98911.81;;;5.17;54.75
55171;BME280;41060;47.510;8.680;2023-02-14T00:09:42;98958.41;;;5.69;54.04
55171;BME280;41060;47.510;8.680;2023-02-14T00:12:09;98901.31;;;5.47;53.63
55171;BME280;41060;47.510;8.680;2023-02-14T00:14:36;98962.38;;;5.84;53.77
55171;BME280;41060;47.510;8.680;2023-02-14T00:17:22;98941.03;;;5.36;54.60
55171;BME280;41060;47.510;8.680;2023-02-14T00:19:51;98958.44;;;5.40;54.54
55171;BME280;41060;47.510;8.680;2023-02-14T00:22:20;98767.63;;;4.22;55.04
55171;BME280;41060;47.510;8.680;2023-02-14T00:24:47;98960.69;;;5.52;54.38
55171;BME280;41060;47.510;8.680;2023-02-14T00:27:14;98887.97;;;4.96;54.79
55171;BME280;41060;47.510;8.680;2023-02-14T00:29:40;98741.38;;;3.92;54.82
55171;BME280;41060;47.510;8.680;2023-02-14T00:32:07;98949.00;;;5.04;55.54
55171;BME280;41060;47.510;8.680;2023-02-14T00:34:35;98962.22;;;5.30;55.25
55171;BME280;41060;47.510;8.680;2023-02-14T00:37:02;98920.59;;;5.16;54.54
55171;BME280;41060;47.510;8.680;2023-02-14T00:39:28;98958.50;;;5.37;54.53
55171;BME280;41060;47.510;8.680;2023-02-14T00:41:55;98907.91;;;4.70;55.53
55171;BME280;41060;47.510;8.680;2023-02-14T00:44:22;98976.63;;;5.17;55.37
55171;BME280;41060;47.510;8.680;2023-02-14T00:46:51;98970.25;;;5.25;55.07
55171;BME280;41060;47.510;8.680;2023-02-14T00:49:18;98805.72;;;4.35;54.58
55171;BME280;41060;47.510;8.680;2023-02-14T00:51:46;98765.88;;;4.22;54.76
55171;BME280;41060;47.510;8.680;2023-02-14T00:54:12;98968.22;;;5.35;54.81
55171;BME280;41060;47.510;8.680;2023-02-14T00:56:39;98961.69;;;5.48;54.48
55171;BME280;41060;47.510;8.680;2023-02-14T00:59:07;98940.00;;;5.42;53.88
55171;BME280;41060;47.510;8.680;2023-02-14T01:01:33;98964.72;;;5.64;53.72
55171;BME280;41060;47.510;8.680;2023-02-14T01:04:00;98748.81;;;4.07;54.52
55171;BME280;41060;47.510;8.680;2023-02-14T01:06:27;98969.31;;;5.28;54.46
55171;BME280;41060;47.510;8.680;2023-02-14T01:08:55;98912.09;;;4.77;55.13
55171;BME280;41060;47.510;8.680;2023-02-14T01:11:23;98918.16;;;4.79;55.51
55171;BME280;41060;47.510;8.680;2023-02-14T01:13:53;98843.31;;;4.35;55.12
55171;BME280;41060;47.510;8.680;2023-02-14T01:16:21;98973.66;;;4.98;55.31
55171;BME280;41060;47.510;8.680;2023-02-14T01:18:49;98964.44;;;4.83;55.70
55171;BME280;41060;47.510;8.680;2023-02-14T01:21:18;98959.66;;;4.65;56.48
55171;BME280;41060;47.510;8.680;2023-02-14T01:23:48;98966.94;;;4.54;56.93
55171;BME280;41060;47.510;8.680;2023-02-14T01:26:18;98964.19;;;4.60;56.53
55171;BME280;41060;47.510;8.680;2023-02-14T01:28:45;98960.34;;;4.73;56.21
55171;BME280;41060;47.510;8.680;2023-02-14T01:31:14;98950.78;;;5.02;55.41
55171;BME280;41060;47.510;8.680;2023-02-14T01:33:46;98958.06;;;5.23;54.71
55171;BME280;41060;47.510;8.680;2023-02-14T01:36:17;98491.16;;;2.51;54.61
55171;BME280;41060;47.510;8.680;2023-02-14T01:38:45;98951.00;;;5.25;54.59
55171;BME280;41060;47.510;8.680;2023-02-14T01:41:12;98948.72;;;4.82;55.45
55171;BME280;41060;47.510;8.680;2023-02-14T01:43:51;98860.94;;;4.30;55.84
55171;BME280;41060;47.510;8.680;2023-02-14T01:46:18;98939.81;;;4.87;55.96
55171;BME280;41060;47.510;8.680;2023-02-14T01:48:46;98951.56;;;4.74;56.56
55171;BME280;41060;47.510;8.680;2023-02-14T01:51:14;98957.19;;;4.61;56.31
55171;BME280;41060;47.510;8.680;2023-02-14T01:53:44;98937.06;;;4.61;56.66
55171;BME280;41060;47.510;8.680;2023-02-14T01:56:15;98724.59;;;3.31;56.55
55171;BME280;41060;47.510;8.680;2023-02-14T01:58:44;98942.38;;;4.90;55.82
55171;BME280;41060;47.510;8.680;2023-02-14T02:01:15;98933.75;;;4.85;55.52
55171;BME280;41060;47.510;8.680;2023-02-14T02:03:46;98842.13;;;4.15;56.32
55171;BME280;41060;47.510;8.680;2023-02-14T02:06:17;98937.84;;;4.63;56.59
55171;BME280;41060;47.510;8.680;2023-02-14T02:08:53;98877.66;;;4.25;56.37
55171;BME280;41060;47.510;8.680;2023-02-14T02:11:24;98931.94;;;4.55;56.83
55171;BME280;41060;47.510;8.680;2023-02-14T02:13:52;98924.91;;;4.57;56.48
55171;BME280;41060;47.510;8.680;2023-02-14T02:16:39;98928.25;;;4.62;56.55
55171;BME280;41060;47.510;8.680;2023-02-14T02:19:34;98927.56;;;4.88;55.57
55171;BME280;41060;47.510;8.680;2023-02-14T02:22:30;98671.44;;;2.92;56.97
55171;BME280;41060;47.510;8.680;2023-02-14T02:25:10;98937.88;;;4.62;56.06
55171;BME280;41060;47.510;8.680;2023-02-14T02:28:13;98844.81;;;4.11;56.74
55171;BME280;41060;47.510;8.680;2023-02-14T02:31:04;98933.41;;;4.67;56.08
55171;BME280;41060;47.510;8.680;2023-02-14T02:36:49;98934.56;;;4.55;55.95
55171;BME280;41060;47.510;8.680;2023-02-14T02:39:33;98948.81;;;4.46;56.81
55171;BME280;41060;47.510;8.680;2023-02-14T02:42:11;98934.63;;;4.54;56.62
55171;BME280;41060;47.510;8.680;2023-02-14T02:44:52;98933.72;;;4.55;56.73
55171;BME280;41060;47.510;8.680;2023-02-14T02:47:26;98840.97;;;3.92;56.47
55171;BME280;41060;47.510;8.680;2023-02-14T02:50:04;98916.50;;;4.44;56.96
55171;BME280;41060;47.510;8.680;2023-02-14T02:53:00;98911.28;;;4.43;56.83
55171;BME280;41060;47.510;8.680;2023-02-14T02:55:42;98835.97;;;3.82;56.44
55171;BME280;41060;47.510;8.680;2023-02-14T02:58:30;98844.94;;;4.07;56.59
55171;BME280;41060;47.510;8.680;2023-02-14T03:01:00;98742.59;;;3.45;56.55
55171;BME280;41060;47.510;8.680;2023-02-14T03:03:31;98939.47;;;4.35;57.00
55171;BME280;41060;47.510;8.680;2023-02-14T03:06:18;98704.75;;;3.21;57.04
55171;BME280;41060;47.510;8.680;2023-02-14T03:08:46;98872.50;;;4.23;56.78
55171;BME280;41060;47.510;8.680;2023-02-14T03:11:13;98681.50;;;3.11;56.67
55171;BME280;41060;47.510;8.680;2023-02-14T03:13:50;98912.50;;;4.31;57.54
55171;BME280;41060;47.510;8.680;2023-02-14T03:16:23;98914.28;;;4.29;56.97
55171;BME280;41060;47.510;8.680;2023-02-14T03:19:00;98871.38;;;3.98;57.29
55171;BME280;41060;47.510;8.680;2023-02-14T03:21:53;98916.00;;;4.30;56.87
55171;BME280;41060;47.510;8.680;2023-02-14T03:24:28;98908.88;;;4.35;57.07
55171;BME280;41060;47.510;8.680;2023-02-14T03:27:03;98911.25;;;4.44;56.47
55171;BME280;41060;47.510;8.680;2023-02-14T03:29:42;98857.44;;;3.96;56.90
55171;BME280;41060;47.510;8.680;2023-02-14T03:32:19;98876.56;;;4.01;56.67
55171;BME280;41060;47.510;8.680;2023-02-14T03:34:53;98741.47;;;3.20;57.21
55171;BME280;41060;47.510;8.680;2023-02-14T03:37:24;98916.41;;;4.15;57.55
55171;BME280;41060;47.510;8.680;2023-02-14T03:40:00;98919.88;;;4.16;57.28
55171;BME280;41060;47.510;8.680;2023-02-14T03:42:35;98914.72;;;4.12;57.71
55171;BME280;41060;47.510;8.680;2023-02-14T03:45:05;98774.28;;;3.34;57.33
55171;BME280;41060;47.510;8.680;2023-02-14T03:47:35;98907.94;;;4.38;57.11
55171;BME280;41060;47.510;8.680;2023-02-14T03:50:06;98910.44;;;4.42;56.75
55171;BME280;41060;47.510;8.680;2023-02-14T03:52:36;98907.03;;;4.39;56.97
55171;BME280;41060;47.510;8.680;2023-02-14T03:55:07;98917.78;;;4.30;57.17
55171;BME280;41060;47.510;8.680;2023-02-14T03:57:38;98838.53;;;3.85;56.61
55171;BME280;41060;47.510;8.680;2023-02-14T04:00:10;98915.19;;;4.28;57.01
55171;BME280;41060;47.510;8.680;2023-02-14T04:02:40;98917.19;;;4.51;56.04
55171;BME280;41060;47.510;8.680;2023-02-14T04:05:17;98650.34;;;3.00;56.01
55171;BME280;41060;47.510;8.680;2023-02-14T04:07:48;98918.50;;;4.67;56.27
55171;BME280;41060;47.510;8.680;2023-02-14T04:10:18;98743.22;;;3.55;56.06
55171;BME280;41060;47.510;8.680;2023-02-14T04:12:49;98910.25;;;4.48;56.63
55171;BME280;41060;47.510;8.680;2023-02-14T04:15:15;98892.28;;;4.35;56.35
55171;BME280;41060;47.510;8.680;2023-02-14T04:17:42;98735.78;;;3.36;57.11
55171;BME280;41060;47.510;8.680;2023-02-14T04:20:28;98916.69;;;4.38;56.61
55171;BME280;41060;47.510;8.680;2023-02-14T04:22:54;98701.59;;;3.09;56.62
55171;BME280;41060;47.510;8.680;2023-02-14T04:25:23;98913.66;;;4.20;56.88
55171;BME280;41060;47.510;8.680;2023-02-14T04:27:50;98890.38;;;3.72;57.57
55171;BME280;41060;47.510;8.680;2023-02-14T04:30:17;98881.34;;;3.84;57.61
55171;BME280;41060;47.510;8.680;2023-02-14T04:32:46;98915.22;;;4.27;57.06
55171;BME280;41060;47.510;8.680;2023-02-14T04:35:14;98784.66;;;3.39;56.78
55171;BME280;41060;47.510;8.680;2023-02-14T04:37:41;98902.97;;;4.27;56.92
55171;BME280;41060;47.510;8.680;2023-02-14T04:40:08;98922.59;;;4.46;56.48
55171;BME280;41060;47.510;8.680;2023-02-14T04:42:37;98918.63;;;4.30;56.67
55171;BME280;41060;47.510;8.680;2023-02-14T04:45:03;98880.16;;;3.97;57.32
55171;BME280;41060;47.510;8.680;2023-02-14T04:47:30;98891.81;;;4.19;57.16
55171;BME280;41060;47.510;8.680;2023-02-14T04:49:57;98908.84;;;4.37;56.61
55171;BME280;41060;47.510;8.680;2023-02-14T04:52:24;98900.78;;;4.44;56.19
55171;BME280;41060;47.510;8.680;2023-02-14T04:54:50;98914.41;;;4.57;56.08
55171;BME280;41060;47.510;8.680;2023-02-14T04:57:17;98913.50;;;4.58;56.38
55171;BME280;41060;47.510;8.680;2023-02-14T04:59:45;98773.88;;;3.85;56.27
55171;BME280;41060;47.510;8.680;2023-02-14T05:02:12;98909.41;;;4.80;55.75
55171;BME280;41060;47.510;8.680;2023-02-14T05:04:42;98900.84;;;4.41;56.00
55171;BME280;41060;47.510;8.680;2023-02-14T05:07:08;98912.31;;;4.03;57.57
55171;BME280;41060;47.510;8.680;2023-02-14T05:09:35;98914.22;;;3.97;57.82
55171;BME280;41060;47.510;8.680;2023-02-14T05:12:02;98916.81;;;3.98;57.62
55171;BME280;41060;47.510;8.680;2023-02-14T05:14:29;98909.81;;;3.99;57.47
55171;BME280;41060;47.510;8.680;2023-02-14T05:16:59;98927.53;;;3.88;58.32
55171;BME280;41060;47.510;8.680;2023-02-14T05:19:27;98919.19;;;4.09;58.97
55171;BME280;41060;47.510;8.680;2023-02-14T05:21:53;98925.59;;;4.31;57.43
55171;BME280;41060;47.510;8.680;2023-02-14T05:24:20;98919.19;;;4.41;57.59
55171;BME280;41060;47.510;8.680;2023-02-14T05:26:47;98900.59;;;4.50;56.82
55171;BME280;41060;47.510;8.680;2023-02-14T05:29:13;98917.19;;;4.83;55.86
55171;BME280;41060;47.510;8.680;2023-02-14T05:31:40;98756.41;;;3.86;54.99
55171;BME280;41060;47.510;8.680;2023-02-14T05:34:08;98918.94;;;4.52;55.58
55171;BME280;41060;47.510;8.680;2023-02-14T05:36:35;98798.94;;;3.95;55.28
55171;BME280;41060;47.510;8.680;2023-02-14T05:39:02;98920.56;;;4.56;55.15
55171;BME280;41060;47.510;8.680;2023-02-14T05:41:29;98866.59;;;4.15;55.23
55171;BME280;41060;47.510;8.680;2023-02-14T05:43:56;98734.00;;;3.40;55.33
55171;BME280;41060;47.510;8.680;2023-02-14T05:46:22;98922.84;;;4.36;55.68
55171;BME280;41060;47.510;8.680;2023-02-14T05:48:50;98921.00;;;4.05;56.53
55171;BME280;41060;47.510;8.680;2023-02-14T05:51:18;98923.28;;;4.19;55.96
55171;BME280;41060;47.510;8.680;2023-02-14T05:53:44;98922.69;;;4.08;56.08
55171;BME280;41060;47.510;8.680;2023-02-14T05:56:11;98730.78;;;2.92;57.09
55171;BME280;41060;47.510;8.680;2023-02-14T05:58:38;98926.09;;;4.11;56.45
55171;BME280;41060;47.510;8.680;2023-02-14T06:01:04;98943.53;;;4.12;56.26
55171;BME280;41060;47.510;8.680;2023-02-14T06:03:31;98922.88;;;4.00;56.73
55171;BME280;41060;47.510;8.680;2023-02-14T06:05:58;98908.38;;;3.87;56.43
55171;BME280;41060;47.510;8.680;2023-02-14T06:08:26;98916.94;;;3.94;56.42
55171;BME280;41060;47.510;8.680;2023-02-14T06:10:53;98922.41;;;3.85;56.67
55171;BME280;41060;47.510;8.680;2023-02-14T06:13:19;98716.97;;;2.85;56.64
55171;BME280;41060;47.510;8.680;2023-02-14T06:15:48;98925.56;;;3.97;56.52
55171;BME280;41060;47.510;8.680;2023-02-14T06:18:17;98873.28;;;3.57;56.40
55171;BME280;41060;47.510;8.680;2023-02-14T06:20:43;98875.56;;;3.71;56.63
55171;BME280;41060;47.510;8.680;2023-02-14T06:23:10;98933.88;;;4.15;56.42
55171;BME280;41060;47.510;8.680;2023-02-14T06:25:38;98783.81;;;3.35;55.44
55171;BME280;41060;47.510;8.680;2023-02-14T06:28:05;98941.66;;;4.53;54.91
55171;BME280;41060;47.510;8.680;2023-02-14T06:30:31;98939.72;;;4.60;54.92
55171;BME280;41060;47.510;8.680;2023-02-14T06:32:59;98941.88;;;4.44;54.69
55171;BME280;41060;47.510;8.680;2023-02-14T06:35:25;98938.03;;;4.57;55.05
55171;BME280;41060;47.510;8.680;2023-02-14T06:37:52;98774.72;;;3.52;54.67
55171;BME280;41060;47.510;8.680;2023-02-14T06:40:19;98952.44;;;4.41;55.18
55171;BME280;41060;47.510;8.680;2023-02-14T06:42:47;98946.91;;;4.18;55.23
55171;BME280;41060;47.510;8.680;2023-02-14T06:45:13;98956.72;;;4.09;55.58
55171;BME280;41060;47.510;8.680;2023-02-14T06:47:41;98956.94;;;4.36;54.97
55171;BME280;41060;47.510;8.680;2023-02-14T06:50:08;98877.34;;;4.04;54.63
55171;BME280;41060;47.510;8.680;2023-02-14T06:52:36;98953.53;;;4.66;54.00
55171;BME280;41060;47.510;8.680;2023-02-14T06:55:03;98960.13;;;4.81;53.03
55171;BME280;41060;47.510;8.680;2023-02-14T06:57:30;98958.88;;;4.94;53.09
55171;BME280;41060;47.510;8.680;2023-02-14T06:59:58;98961.53;;;4.93;52.82
55171;BME280;41060;47.510;8.680;2023-02-14T07:02:28;98884.16;;;4.44;52.83
55171;BME280;41060;47.510;8.680;2023-02-14T07:04:54;98958.63;;;5.03;52.63
55171;BME280;41060;47.510;8.680;2023-02-14T07:07:21;98900.91;;;4.71;52.50
55171;BME280;41060;47.510;8.680;2023-02-14T07:09:50;98967.19;;;5.10;51.81
55171;BME280;41060;47.510;8.680;2023-02-14T07:12:16;98928.53;;;4.84;52.34
55171;BME280;41060;47.510;8.680;2023-02-14T07:14:43;98947.56;;;4.92;52.06
55171;BME280;41060;47.510;8.680;2023-02-14T07:17:11;98964.00;;;4.99;52.03
55171;BME280;41060;47.510;8.680;2023-02-14T07:19:41;98897.69;;;4.61;52.17
55171;BME280;41060;47.510;8.680;2023-02-14T07:22:07;98944.88;;;4.94;52.10
55171;BME280;41060;47.510;8.680;2023-02-14T07:24:34;98964.97;;;4.96;52.06
55171;BME280;41060;47.510;8.680;2023-02-14T07:27:01;98967.72;;;4.59;53.11
55171;BME280;41060;47.510;8.680;2023-02-14T07:29:27;98964.53;;;4.12;53.83
55171;BME280;41060;47.510;8.680;2023-02-14T07:31:55;98961.19;;;4.06;54.29
55171;BME280;41060;47.510;8.680;2023-02-14T07:34:23;98966.78;;;4.26;54.04
55171;BME280;41060;47.510;8.680;2023-02-14T07:36:49;98879.41;;;3.92;53.20
55171;BME280;41060;47.510;8.680;2023-02-14T07:39:17;98971.47;;;4.49;53.71
55171;BME280;41060;47.510;8.680;2023-02-14T07:41:43;98920.44;;;4.28;52.59
55171;BME280;41060;47.510;8.680;2023-02-14T07:44:10;98961.44;;;4.65;52.54
55171;BME280;41060;47.510;8.680;2023-02-14T07:46:37;98928.34;;;4.59;52.34
55171;BME280;41060;47.510;8.680;2023-02-14T07:49:03;98956.63;;;4.80;52.02
55171;BME280;41060;47.510;8.680;2023-02-14T07:51:31;98959.22;;;4.82;52.39
55171;BME280;41060;47.510;8.680;2023-02-14T07:53:58;98952.25;;;4.81;52.48
55171;BME280;41060;47.510;8.680;2023-02-14T07:56:28;98929.09;;;4.64;51.97
55171;BME280;41060;47.510;8.680;2023-02-14T07:58:54;98948.72;;;4.82;52.08
55171;BME280;41060;47.510;8.680;2023-02-14T08:01:21;98805.16;;;3.91;52.30
55171;BME280;41060;47.510;8.680;2023-02-14T08:03:48;98951.47;;;4.77;53.06
55171;BME280;41060;47.510;8.680;2023-02-14T08:06:16;98960.28;;;4.75;52.39
55171;BME280;41060;47.510;8.680;2023-02-14T08:08:47;98950.59;;;4.77;51.91
55171;BME280;41060;47.510;8.680;2023-02-14T08:11:14;98947.97;;;4.77;52.49
55171;BME280;41060;47.510;8.680;2023-02-14T08:14:05;98852.63;;;4.15;52.33
55171;BME280;41060;47.510;8.680;2023-02-14T08:16:31;98950.66;;;4.75;52.05
55171;BME280;41060;47.510;8.680;2023-02-14T08:18:59;98947.97;;;4.77;51.96
55171;BME280;41060;47.510;8.680;2023-02-14T08:21:26;98943.78;;;4.70;51.75
55171;BME280;41060;47.510;8.680;2023-02-14T08:23:54;98933.63;;;4.58;51.59
55171;BME280;41060;47.510;8.680;2023-02-14T08:26:21;98948.47;;;4.59;52.22
55171;BME280;41060;47.510;8.680;2023-02-14T08:28:48;98938.53;;;4.70;52.07
55171;BME280;41060;47.510;8.680;2023-02-14T08:31:21;98944.19;;;4.87;51.79
55171;BME280;41060;47.510;8.680;2023-02-14T08:33:49;98942.44;;;4.87;51.80
55171;BME280;41060;47.510;8.680;2023-02-14T08:36:15;98889.91;;;4.58;52.11
55171;BME280;41060;47.510;8.680;2023-02-14T08:38:42;98930.91;;;4.93;51.29
55171;BME280;41060;47.510;8.680;2023-02-14T08:41:11;98935.28;;;4.93;51.53
55171;BME280;41060;47.510;8.680;2023-02-14T08:43:38;98934.13;;;5.03;51.86
55171;BME280;41060;47.510;8.680;2023-02-14T08:46:04;98754.31;;;3.98;51.42
55171;BME280;41060;47.510;8.680;2023-02-14T08:48:33;98890.03;;;4.54;52.67
55171;BME280;41060;47.510;8.680;2023-02-14T08:51:04;98943.00;;;4.34;53.61
55171;BME280;41060;47.510;8.680;2023-02-14T08:53:31;98935.19;;;3.97;55.09
55171;BME280;41060;47.510;8.680;2023-02-14T08:56:01;98925.84;;;3.87;55.22
55171;BME280;41060;47.510;8.680;2023-02-14T08:58:29;98938.28;;;3.77;55.72
55171;BME280;41060;47.510;8.680;2023-02-14T09:00:56;98946.91;;;3.82;56.26
55171;BME280;41060;47.510;8.680;2023-02-14T09:03:26;98900.41;;;3.55;55.60
55171;BME280;41060;47.510;8.680;2023-02-14T09:05:55;98938.28;;;3.79;55.99
55171;BME280;41060;47.510;8.680;2023-02-14T09:08:22;98945.66;;;3.60;56.45
55171;BME280;41060;47.510;8.680;2023-02-14T09:10:48;98886.25;;;3.22;56.79
55171;BME280;41060;47.510;8.680;2023-02-14T09:13:16;98935.03;;;3.67;56.28
55171;BME280;41060;47.510;8.680;2023-02-14T09:15:44;98939.50;;;3.64;55.88
55171;BME280;41060;47.510;8.680;2023-02-14T09:18:11;98906.84;;;3.40;55.98
55171;BME280;41060;47.510;8.680;2023-02-14T09:20:37;98933.38;;;3.63;56.15
55171;BME280;41060;47.510;8.680;2023-02-14T09:23:06;98924.09;;;3.87;55.29
55171;BME280;41060;47.510;8.680;2023-02-14T09:25:33;98927.22;;;4.01;55.95
55171;BME280;41060;47.510;8.680;2023-02-14T09:27:59;98920.06;;;4.08;55.05
55171;BME280;41060;47.510;8.680;2023-02-14T09:30:26;98923.13;;;3.90;54.80
55171;BME280;41060;47.510;8.680;2023-02-14T09:32:54;98914.81;;;3.72;55.58
55171;BME280;41060;47.510;8.680;2023-02-14T09:35:21;98916.16;;;3.89;55.37
55171;BME280;41060;47.510;8.680;2023-02-14T09:38:06;98917.34;;;3.77;55.81
55171;BME280;41060;47.510;8.680;2023-02-14T09:40:44;98924.34;;;3.75;55.84
55171;BME280;41060;47.510;8.680;2023-02-14T09:43:17;98929.19;;;3.93;55.21
55171;BME280;41060;47.510;8.680;2023-02-14T09:45:50;98921.41;;;3.89;55.29
55171;BME280;41060;47.510;8.680;2023-02-14T09:48:24;98921.84;;;3.70;56.55
55171;BME280;41060;47.510;8.680;2023-02-14T09:50:55;98888.31;;;3.49;56.50
55171;BME280;41060;47.510;8.680;2023-02-14T09:53:25;98923.66;;;3.68;56.69
55171;BME280;41060;47.510;8.680;2023-02-14T09:55:58;98921.19;;;3.62;56.13
55171;BME280;41060;47.510;8.680;2023-02-14T09:58:32;98918.97;;;3.44;56.81
55171;BME280;41060;47.510;8.680;2023-02-14T10:01:05;98917.69;;;3.62;55.87
55171;BME280;41060;47.510;8.680;2023-02-14T10:04:00;98918.16;;;3.42;56.17
55171;BME280;41060;47.510;8.680;2023-02-14T10:06:48;98848.34;;;3.00;56.36
55171;BME280;41060;47.510;8.680;2023-02-14T10:09:24;98914.59;;;3.45;56.74
55171;BME280;41060;47.510;8.680;2023-02-14T10:12:00;98834.88;;;3.18;56.63
55171;BME280;41060;47.510;8.680;2023-02-14T10:14:29;98935.31;;;3.92;55.53
55171;BME280;41060;47.510;8.680;2023-02-14T10:17:02;98900.09;;;4.02;55.51
55171;BME280;41060;47.510;8.680;2023-02-14T10:19:37;98895.09;;;3.93;54.59
55171;BME280;41060;47.510;8.680;2023-02-14T10:22:08;98896.88;;;3.93;54.84
55171;BME280;41060;47.510;8.680;2023-02-14T10:24:41;98837.38;;;3.61;55.26
55171;BME280;41060;47.510;8.680;2023-02-14T10:27:29;98901.81;;;4.03;54.90
55171;BME280;41060;47.510;8.680;2023-02-14T10:29:58;98895.09;;;3.93;54.80
55171;BME280;41060;47.510;8.680;2023-02-14T10:32:33;98894.41;;;3.87;55.11
55171;BME280;41060;47.510;8.680;2023-02-14T10:35:10;98890.09;;;3.84;55.35
55171;BME280;41060;47.510;8.680;2023-02-14T10:37:49;98888.31;;;3.85;54.71
55171;BME280;41060;47.510;8.680;2023-02-14T10:40:35;98885.94;;;3.74;55.76
55171;BME280;41060;47.510;8.680;2023-02-14T10:43:15;98794.25;;;3.40;55.40
55171;BME280;41060;47.510;8.680;2023-02-14T10:45:52;98882.91;;;3.92;55.66
55171;BME280;41060;47.510;8.680;2023-02-14T10:48:28;98878.78;;;3.81;55.95
55171;BME280;41060;47.510;8.680;2023-02-14T10:51:00;98874.50;;;3.78;55.40
55171;BME280;41060;47.510;8.680;2023-02-14T10:53:35;98866.66;;;3.78;54.88
55171;BME280;41060;47.510;8.680;2023-02-14T10:56:07;98643.38;;;2.64;54.67
55171;BME280;41060;47.510;8.680;2023-02-14T10:58:38;98839.56;;;4.11;54.46
55171;BME280;41060;47.510;8.680;2023-02-14T11:01:07;98821.47;;;3.68;54.56
55171;BME280;41060;47.510;8.680;2023-02-14T11:03:37;98861.41;;;3.78;55.70
55171;BME280;41060;47.510;8.680;2023-02-14T11:06:08;98856.66;;;3.94;56.01
55171;BME280;41060;47.510;8.680;2023-02-14T11:08:36;98857.84;;;4.47;66.97
55171;BME280;41060;47.510;8.680;2023-02-14T11:11:10;98835.09;;;5.63;70.82
55171;BME280;41060;47.510;8.680;2023-02-14T11:13:41;98835.00;;;6.67;69.75
55171;BME280;41060;47.510;8.680;2023-02-14T11:16:10;98786.03;;;6.85;52.39
55171;BME280;41060;47.510;8.680;2023-02-14T11:18:39;98829.56;;;6.72;49.72
55171;BME280;41060;47.510;8.680;2023-02-14T11:21:10;98824.59;;;6.39;50.30
55171;BME280;41060;47.510;8.680;2023-02-14T11:23:39;98792.00;;;5.67;51.30
55171;BME280;41060;47.510;8.680;2023-02-14T11:26:15;98821.69;;;5.43;51.99
55171;BME280;41060;47.510;8.680;2023-02-14T11:28:48;98817.59;;;5.07;52.67
55171;BME280;41060;47.510;8.680;2023-02-14T11:31:27;98816.03;;;5.29;52.94
55171;BME280;41060;47.510;8.680;2023-02-14T11:33:54;98808.56;;;5.43;52.12
55171;BME280;41060;47.510;8.680;2023-02-14T11:36:23;98804.84;;;5.50;51.82
55171;BME280;41060;47.510;8.680;2023-02-14T11:38:55;98797.97;;;5.73;51.43
55171;BME280;41060;47.510;8.680;2023-02-14T11:41:24;98796.69;;;5.86;50.95
55171;BME280;41060;47.510;8.680;2023-02-14T11:44:11;98790.06;;;5.73;51.02
55171;BME280;41060;47.510;8.680;2023-02-14T11:46:40;98788.88;;;5.56;51.55
55171;BME280;41060;47.510;8.680;2023-02-14T11:49:23;98753.56;;;5.39;50.99
55171;BME280;41060;47.510;8.680;2023-02-14T11:51:55;98770.34;;;5.07;52.33
55171;BME280;41060;47.510;8.680;2023-02-14T11:54:28;98789.88;;;4.98;52.87
55171;BME280;41060;47.510;8.680;2023-02-14T11:57:00;98785.69;;;4.91;53.07
55171;BME280;41060;47.510;8.680;2023-02-14T11:59:30;98780.84;;;5.07;53.12
55171;BME280;41060;47.510;8.680;2023-02-14T12:02:00;98776.53;;;5.06;53.08
55171;BME280;41060;47.510;8.680;2023-02-14T12:04:32;98777.22;;;5.11;53.17
55171;BME280;41060;47.510;8.680;2023-02-14T12:07:17;98730.22;;;4.75;53.02
55171;BME280;41060;47.510;8.680;2023-02-14T12:09:45;98761.97;;;5.22;52.45
55171;BME280;41060;47.510;8.680;2023-02-14T12:12:19;98774.28;;;5.48;52.14
55171;BME280;41060;47.510;8.680;2023-02-14T12:14:47;98764.97;;;5.38;53.19
55171;BME280;41060;47.510;8.680;2023-02-14T12:17:24;98766.69;;;5.39;52.33
55171;BME280;41060;47.510;8.680;2023-02-14T12:20:00;98757.09;;;5.11;53.01
55171;BME280;41060;47.510;8.680;2023-02-14T12:22:34;98750.50;;;4.98;53.52
55171;BME280;41060;47.510;8.680;2023-02-14T12:25:09;98752.84;;;5.34;52.58
55171;BME280;41060;47.510;8.680;2023-02-14T12:27:44;98689.81;;;5.07;52.19
55171;BME280;41060;47.510;8.680;2023-02-14T12:30:15;98740.50;;;5.62;51.58
55171;BME280;41060;47.510;8.680;2023-02-14T12:32:46;98743.53;;;5.76;51.52
55171;BME280;41060;47.510;8.680;2023-02-14T12:35:15;98736.31;;;6.07;51.60
55171;BME280;41060;47.510;8.680;2023-02-14T12:37:52;98734.56;;;6.55;50.67
55171;BME280;41060;47.510;8.680;2023-02-14T12:40:28;98725.63;;;6.82;49.46
55171;BME280;41060;47.510;8.680;2023-02-14T12:46:12;98723.56;;;7.12;49.42
55171;BME280;41060;47.510;8.680;2023-02-14T12:48:55;98658.94;;;6.81;48.75
55171;BME280;41060;47.510;8.680;2023-02-14T12:51:29;98681.78;;;6.81;48.74
55171;BME280;41060;47.510;8.680;2023-02-14T12:54:19;98689.97;;;6.95;48.88
55171;BME280;41060;47.510;8.680;2023-02-14T12:57:00;98630.59;;;6.44;48.50
55171;BME280;41060;47.510;8.680;2023-02-14T12:59:39;98689.97;;;6.73;49.24
55171;BME280;41060;47.510;8.680;2023-02-14T13:02:51;98692.31;;;6.81;49.39
55171;BME280;41060;47.510;8.680;2023-02-14T13:05:29;98689.31;;;6.90;48.96
55171;BME280;41060;47.510;8.680;2023-02-14T13:08:11;98683.53;;;7.02;48.43
55171;BME280;41060;47.510;8.680;2023-02-14T13:10:53;98680.78;;;7.27;48.13
55171;BME280;41060;47.510;8.680;2023-02-14T13:13:32;98678.22;;;7.66;47.18
55171;BME280;41060;47.510;8.680;2023-02-14T13:16:13;98672.03;;;7.47;47.41
55171;BME280;41060;47.510;8.680;2023-02-14T13:18:48;98672.16;;;7.64;48.15
55171;BME280;41060;47.510;8.680;2023-02-14T13:21:22;98610.16;;;7.35;48.35
55171;BME280;41060;47.510;8.680;2023-02-14T13:23:53;98643.41;;;7.80;47.55
55171;BME280;41060;47.510;8.680;2023-02-14T13:26:24;98663.41;;;7.63;47.88
55171;BME280;41060;47.510;8.680;2023-02-14T13:28:55;98655.50;;;7.84;47.57
55171;BME280;41060;47.510;8.680;2023-02-14T13:31:24;98656.97;;;8.10;46.47
55171;BME280;41060;47.510;8.680;2023-02-14T13:33:53;98590.31;;;7.67;46.93
55171;BME280;41060;47.510;8.680;2023-02-14T13:36:22;98659.53;;;7.92;47.11
55171;BME280;41060;47.510;8.680;2023-02-14T13:38:52;98652.75;;;8.06;47.11